Ogden, IL (61859)

5:19 PM CDT on July 06, 2015 (GMT -0500)
Crestlake | | Change Station
CLOSE
Current Station
Personal Weather Station
Location: Saint Joseph, IL
Elevation: 678 ft
Nearby Weather Stations

Elev 678 ft 40.11 °N, 88.03 °W | Updated 19 seconds ago

Partly Cloudy
Partly Cloudy
87.8 °F
Feels Like 100 °F
N
4.7
Wind Variable Wind from West
Gusts 6.0 mph

Today
High -- | Low -- °F
--% Chance of Precip.
Yesterday
High -- | Low -- °F
Precip. -- in
5:28 AM 8:23 PM
Waning Gibbous, 71% visible
Pressure 29.92 in
Visibility 10.0 miles
Clouds Mostly Cloudy 3600 ft
Mostly Cloudy 4300 ft
Mostly Cloudy 5000 ft
Heat Index 100 °F
Dew Point 77 °F
Humidity 71%
Rainfall 0.00 in
Snow Depth Not available.
UV 2 out of 12
Pollen 4.20 out of 12
Air Quality Not available.
Flu Activity Not available.
METAR KTIP 062155Z AUTO 20007G15KT 10SM BKN036 BKN043 BKN050 30/23 A2992 RMK AO2 LTG DSNT N T03000231

More Conditions Fewer Conditions

Pressure 29.92 in
Visibility 10.0 miles
Clouds Mostly Cloudy 3600 ft
Mostly Cloudy 4300 ft
Mostly Cloudy 5000 ft
Heat Index 100 °F
Dew Point 77 °F
Humidity 71%
Rainfall 0.00 in
Snow Depth Not available.
UV 2 out of 12
Pollen 4.20 out of 12
Air Quality Not available.
Flu Activity Not available.
METAR KTIP 062155Z AUTO 20007G15KT 10SM BKN036 BKN043 BKN050 30/23 A2992 RMK AO2 LTG DSNT N T03000231

More Conditions Fewer Conditions

10-Day Weather Forecast

×

Almanac

Astronomy

Jul. 06, 2015 Rise Set
Actual Time
Civil Twilight
Nautical Twilight
Astronomical Twilight
Moon
Length of Visible Light
Length of Day
Tomorrow will be .
, % of the Moon is Illuminated

Today's Extremes

State Highs State Lows

Community

WunderPhotos

Upload Photos

1,835,661 photos uploaded!

WunderBlogs® & News

Nearby

Air Quality

  Air Quality AQ Index Pollutant
Not available.

Snow Depth

Station Depth Elevation

Earthquake Activity

City Distance Mag. Time & Date
Minimum magnitude displayed is 2.5.

Coastal Water Temperatures

Place Temperature

Stations

Nearby Weather Stations

Station Location Temp. Windchill Dew Point Humidity Wind Precip. Elev Updated Type